createdAt,value
2023-03-19T00:00:29.185Z,9.80
2023-03-19T00:02:56.525Z,10.37
2023-03-19T00:05:23.712Z,10.47
2023-03-19T00:07:51.127Z,11.40
2023-03-19T00:10:18.262Z,10.50
2023-03-19T00:12:45.701Z,10.43
2023-03-19T00:15:14.545Z,10.13
2023-03-19T00:17:43.071Z,10.10
2023-03-19T00:20:11.676Z,10.07
2023-03-19T00:22:39.682Z,9.93
2023-03-19T00:25:08.066Z,9.60
2023-03-19T00:27:35.354Z,9.57
2023-03-19T00:30:02.634Z,10.47
2023-03-19T00:32:30.082Z,9.97
2023-03-19T00:34:57.420Z,11.20
2023-03-19T00:37:24.566Z,10.97
2023-03-19T00:39:51.725Z,11.37
2023-03-19T00:42:18.886Z,11.23
2023-03-19T00:44:45.955Z,11.00
2023-03-19T00:47:13.064Z,11.33
2023-03-19T00:49:40.200Z,11.00
2023-03-19T00:52:07.929Z,11.70
2023-03-19T00:54:35.283Z,12.90
2023-03-19T00:57:02.513Z,12.20
2023-03-19T00:59:29.702Z,11.17
2023-03-19T01:01:56.853Z,11.27
2023-03-19T01:04:24.048Z,11.33
2023-03-19T01:06:51.618Z,10.70
2023-03-19T01:09:18.922Z,10.27
2023-03-19T01:11:46.211Z,10.33
2023-03-19T01:14:13.330Z,11.67
2023-03-19T01:16:40.455Z,11.87
2023-03-19T01:19:07.603Z,11.37
2023-03-19T01:21:36.468Z,10.87
2023-03-19T01:24:03.593Z,10.53
2023-03-19T01:26:30.773Z,10.83
2023-03-19T01:28:58.724Z,11.37
2023-03-19T01:31:25.856Z,10.80
2023-03-19T01:33:53.020Z,10.43
2023-03-19T01:36:20.218Z,10.87
2023-03-19T01:38:47.435Z,10.23
2023-03-19T01:41:14.725Z,9.63
2023-03-19T01:43:41.840Z,9.10
2023-03-19T01:46:14.811Z,9.37
2023-03-19T01:48:46.647Z,8.67
2023-03-19T01:51:16.210Z,8.07
2023-03-19T01:53:46.450Z,8.33
2023-03-19T01:56:16.181Z,9.30
2023-03-19T01:58:45.078Z,9.00
2023-03-19T02:01:12.252Z,10.23
2023-03-19T02:03:39.925Z,9.87
2023-03-19T02:06:07.662Z,8.57
2023-03-19T02:08:36.262Z,8.57
2023-03-19T02:11:03.626Z,8.63
2023-03-19T02:13:31.126Z,8.70
2023-03-19T02:15:58.284Z,8.80
2023-03-19T02:18:25.874Z,9.30
2023-03-19T02:20:56.154Z,9.13
2023-03-19T02:23:38.552Z,8.03
2023-03-19T02:26:08.659Z,7.90
2023-03-19T02:28:37.586Z,7.90
2023-03-19T02:31:04.850Z,7.70
2023-03-19T02:33:32.002Z,7.27
2023-03-19T02:35:59.512Z,8.00
2023-03-19T02:38:27.642Z,8.40
2023-03-19T02:40:59.208Z,8.40
2023-03-19T02:43:26.860Z,7.23
2023-03-19T02:45:54.096Z,8.10
2023-03-19T02:48:21.216Z,7.63
2023-03-19T02:50:48.361Z,7.57
2023-03-19T02:53:15.926Z,7.23
2023-03-19T02:55:43.405Z,7.47
2023-03-19T02:58:11.198Z,7.40
2023-03-19T03:00:38.373Z,7.67
2023-03-19T03:03:06.746Z,7.33
2023-03-19T03:05:34.108Z,7.60
2023-03-19T03:08:01.364Z,7.47
2023-03-19T03:10:28.624Z,8.33
2023-03-19T03:12:56.060Z,8.40
2023-03-19T03:15:23.176Z,8.47
2023-03-19T03:17:50.404Z,8.20
2023-03-19T03:20:17.925Z,8.23
2023-03-19T03:22:45.193Z,7.40
2023-03-19T03:25:12.561Z,7.40
2023-03-19T03:27:40.154Z,7.60
2023-03-19T03:30:08.855Z,8.10
2023-03-19T03:32:36.785Z,8.23
2023-03-19T03:35:05.214Z,8.27
2023-03-19T03:37:32.708Z,8.83
2023-03-19T03:39:59.828Z,8.50
2023-03-19T03:42:27.193Z,8.60
2023-03-19T03:44:54.279Z,8.10
2023-03-19T03:47:21.437Z,7.97
2023-03-19T03:49:48.560Z,8.20
2023-03-19T03:52:15.748Z,7.97
2023-03-19T03:54:42.894Z,7.73
2023-03-19T03:57:10.012Z,7.23
2023-03-19T03:59:37.138Z,8.23
2023-03-19T04:02:04.329Z,8.27
2023-03-19T04:04:31.449Z,8.20
2023-03-19T04:06:58.636Z,8.67
2023-03-19T04:09:26.367Z,9.83
2023-03-19T04:11:53.568Z,8.73
2023-03-19T04:14:20.732Z,9.50
2023-03-19T04:16:48.354Z,10.37
2023-03-19T04:19:15.623Z,9.57
2023-03-19T04:21:42.729Z,8.83
2023-03-19T04:24:12.972Z,8.70
2023-03-19T04:26:40.180Z,9.10
2023-03-19T04:29:08.764Z,9.60
2023-03-19T04:31:35.878Z,9.80
2023-03-19T04:34:02.987Z,10.20
2023-03-19T04:36:30.957Z,10.00
2023-03-19T04:38:58.137Z,9.87
2023-03-19T04:41:26.234Z,10.30
2023-03-19T04:43:53.344Z,9.80
2023-03-19T04:46:20.470Z,9.87
2023-03-19T04:48:47.605Z,10.43
2023-03-19T04:51:14.947Z,10.60
2023-03-19T04:53:42.071Z,10.30
2023-03-19T04:56:09.499Z,10.60
2023-03-19T04:58:36.644Z,10.00
2023-03-19T05:01:03.930Z,10.97
2023-03-19T05:03:31.796Z,10.53
2023-03-19T05:05:59.043Z,10.43
2023-03-19T05:08:26.641Z,10.07
2023-03-19T05:10:53.798Z,7.33
2023-03-19T05:13:21.761Z,5.93
2023-03-19T05:15:48.957Z,4.70
2023-03-19T05:18:16.638Z,4.90
2023-03-19T05:20:44.407Z,4.67
2023-03-19T05:23:11.652Z,4.67
2023-03-19T05:25:38.779Z,4.60
2023-03-19T05:28:07.444Z,4.33
2023-03-19T05:30:35.362Z,4.03
2023-03-19T05:33:02.938Z,3.97
2023-03-19T05:35:30.660Z,3.90
2023-03-19T05:37:58.086Z,4.20
2023-03-19T05:40:25.568Z,3.83
2023-03-19T05:42:52.670Z,3.77
2023-03-19T05:45:20.041Z,3.43
2023-03-19T05:47:50.199Z,3.30
2023-03-19T05:50:18.302Z,3.30
2023-03-19T05:52:45.579Z,3.90
2023-03-19T05:55:12.776Z,2.90
2023-03-19T05:57:39.932Z,3.80
2023-03-19T06:00:07.747Z,4.20
2023-03-19T06:02:35.433Z,3.70
2023-03-19T06:05:02.808Z,3.43
2023-03-19T06:07:29.998Z,3.70
2023-03-19T06:09:57.172Z,4.43
2023-03-19T06:12:24.835Z,4.97
2023-03-19T06:14:52.028Z,6.80
2023-03-19T06:17:19.165Z,6.90
2023-03-19T06:19:46.341Z,7.20
2023-03-19T06:22:13.490Z,7.53
2023-03-19T06:24:40.943Z,7.27
2023-03-19T06:27:08.189Z,6.57
2023-03-19T06:29:35.312Z,6.93
2023-03-19T06:32:02.718Z,8.83
2023-03-19T06:34:29.896Z,9.07
2023-03-19T06:36:57.149Z,8.23
2023-03-19T06:39:24.495Z,8.60
2023-03-19T06:41:51.873Z,6.67
2023-03-19T06:44:19.086Z,7.43
2023-03-19T06:46:46.290Z,6.93
2023-03-19T06:49:13.614Z,6.63
2023-03-19T06:51:41.160Z,5.40
2023-03-19T06:54:08.274Z,5.13
2023-03-19T06:56:35.516Z,5.27
2023-03-19T06:59:02.602Z,4.70
2023-03-19T07:01:29.869Z,4.37
2023-03-19T07:03:57.403Z,4.30
2023-03-19T07:06:24.563Z,4.27
2023-03-19T07:08:51.654Z,4.17
2023-03-19T07:11:18.845Z,4.27
2023-03-19T07:13:46.581Z,4.60
2023-03-19T07:16:13.786Z,5.90
2023-03-19T07:18:40.918Z,6.10
2023-03-19T07:21:08.075Z,5.13
2023-03-19T07:23:35.489Z,5.53
2023-03-19T07:26:02.954Z,6.17
2023-03-19T07:28:30.314Z,7.20
2023-03-19T07:30:57.463Z,6.80
2023-03-19T07:33:24.570Z,6.63
2023-03-19T07:35:51.988Z,7.60
2023-03-19T07:38:19.236Z,8.67
2023-03-19T07:41:01.018Z,8.67
2023-03-19T07:43:28.908Z,10.07
2023-03-19T07:45:56.109Z,8.87
2023-03-19T07:48:23.270Z,11.70
2023-03-19T07:50:54.144Z,9.70
2023-03-19T07:53:21.447Z,8.53
2023-03-19T07:55:49.115Z,6.43
2023-03-19T07:58:17.030Z,6.40
2023-03-19T08:00:45.107Z,6.67
2023-03-19T08:03:12.548Z,7.23
2023-03-19T08:05:39.808Z,6.90
2023-03-19T08:08:07.340Z,8.03
2023-03-19T08:10:36.500Z,6.90
2023-03-19T08:13:05.367Z,6.07
2023-03-19T08:15:32.542Z,6.60
2023-03-19T08:18:04.157Z,8.60
2023-03-19T08:20:31.910Z,8.53
2023-03-19T08:22:59.244Z,9.07
2023-03-19T08:25:27.560Z,8.20
2023-03-19T08:27:54.714Z,7.30
2023-03-19T08:30:21.875Z,7.37
2023-03-19T08:32:50.516Z,7.93
2023-03-19T08:35:17.970Z,8.40
2023-03-19T08:37:45.337Z,8.57
2023-03-19T08:40:12.846Z,7.40
2023-03-19T08:42:44.368Z,6.93
2023-03-19T08:45:12.825Z,6.80
2023-03-19T08:47:40.417Z,6.83
2023-03-19T08:50:07.994Z,6.77
2023-03-19T08:52:35.257Z,6.60
2023-03-19T08:55:02.450Z,7.00
2023-03-19T08:57:31.070Z,6.13
2023-03-19T08:59:58.510Z,5.83
2023-03-19T09:02:25.638Z,5.60
2023-03-19T09:04:52.943Z,5.90
2023-03-19T09:07:20.147Z,5.77
2023-03-19T09:09:47.333Z,5.30
2023-03-19T09:12:15.609Z,5.53
2023-03-19T09:14:43.232Z,5.40
2023-03-19T09:17:10.890Z,5.80
2023-03-19T09:19:38.385Z,6.07
2023-03-19T09:22:05.954Z,7.47
2023-03-19T09:24:33.120Z,5.00
2023-03-19T09:27:00.471Z,4.30
2023-03-19T09:29:27.632Z,4.20
2023-03-19T09:31:54.773Z,4.50
2023-03-19T09:34:21.898Z,4.13
2023-03-19T09:36:49.028Z,4.63
2023-03-19T09:39:16.227Z,4.80
2023-03-19T09:41:53.000Z,4.60
2023-03-19T09:44:31.470Z,4.13
2023-03-19T09:47:23.985Z,4.80
2023-03-19T09:49:51.287Z,4.33
2023-03-19T09:52:24.581Z,3.70
2023-03-19T09:54:52.771Z,2.13
2023-03-19T09:57:20.571Z,2.40
2023-03-19T09:59:48.358Z,2.30
2023-03-19T10:02:27.134Z,1.93
2023-03-19T10:04:54.644Z,3.00
2023-03-19T10:07:22.347Z,2.45
2023-03-19T10:09:49.558Z,1.88
2023-03-19T10:12:17.433Z,2.03
2023-03-19T10:15:03.574Z,2.00
2023-03-19T10:17:41.713Z,2.00
2023-03-19T10:20:13.511Z,2.58
2023-03-19T10:22:49.820Z,2.20
2023-03-19T10:25:20.976Z,2.13
2023-03-19T10:27:51.412Z,2.00
2023-03-19T10:30:19.922Z,1.83
2023-03-19T10:32:50.601Z,2.30
2023-03-19T10:35:23.411Z,1.95
2023-03-19T10:37:51.139Z,1.90
2023-03-19T10:40:24.990Z,2.17
2023-03-19T10:42:52.077Z,2.10
2023-03-19T10:45:28.071Z,2.15
2023-03-19T10:47:56.733Z,2.05
2023-03-19T10:50:28.977Z,1.98
2023-03-19T10:53:14.123Z,1.75
2023-03-19T10:55:48.794Z,1.90
2023-03-19T10:58:17.597Z,2.00
2023-03-19T11:00:48.736Z,1.80
2023-03-19T11:03:31.881Z,1.98
2023-03-19T11:06:18.268Z,1.90
2023-03-19T11:08:51.374Z,1.60
2023-03-19T11:11:26.220Z,1.83
2023-03-19T11:13:53.517Z,1.60
2023-03-19T11:16:20.705Z,1.60
2023-03-19T11:18:49.780Z,2.33
2023-03-19T11:21:22.885Z,1.52
2023-03-19T11:23:53.848Z,1.77
2023-03-19T11:26:21.738Z,1.60
2023-03-19T11:28:52.640Z,1.70
2023-03-19T11:31:22.541Z,1.80
2023-03-19T11:34:09.553Z,1.42
2023-03-19T11:36:39.668Z,1.40
2023-03-19T11:39:25.704Z,1.30
2023-03-19T11:42:15.718Z,1.55
2023-03-19T11:45:04.001Z,1.50
2023-03-19T11:47:37.719Z,1.60
2023-03-19T11:50:05.265Z,1.77
2023-03-19T11:52:51.186Z,1.60
2023-03-19T11:55:26.657Z,1.70
2023-03-19T11:57:54.654Z,1.52
2023-03-19T12:00:21.769Z,1.50
2023-03-19T12:02:48.878Z,1.70
2023-03-19T12:05:28.025Z,1.55
2023-03-19T12:07:55.302Z,1.70
2023-03-19T12:10:30.594Z,1.52
2023-03-19T12:12:57.688Z,1.83
2023-03-19T12:15:57.291Z,2.22
2023-03-19T12:18:37.121Z,1.70
2023-03-19T12:21:33.384Z,1.70
2023-03-19T12:24:04.118Z,1.60
2023-03-19T12:26:40.485Z,1.90
2023-03-19T12:29:21.998Z,1.77
2023-03-19T12:31:52.168Z,1.65
2023-03-19T12:34:40.288Z,1.70
2023-03-19T12:37:07.851Z,1.80
2023-03-19T12:39:38.064Z,1.90
2023-03-19T12:42:07.544Z,1.65
2023-03-19T12:44:39.574Z,2.08
2023-03-19T12:47:09.571Z,1.70
2023-03-19T12:49:52.140Z,1.73
2023-03-19T12:52:23.673Z,1.92
2023-03-19T12:54:55.946Z,1.80
2023-03-19T12:57:38.606Z,1.80
2023-03-19T13:00:09.502Z,1.80
2023-03-19T13:02:48.748Z,2.70
2023-03-19T13:05:22.897Z,4.63
2023-03-19T13:08:09.300Z,6.15
2023-03-19T13:10:36.740Z,1.83
2023-03-19T13:13:10.834Z,1.90
2023-03-19T13:15:44.594Z,2.47
2023-03-19T13:18:30.581Z,1.65
2023-03-19T13:21:07.679Z,2.00
2023-03-19T13:23:36.581Z,1.95
2023-03-19T13:26:05.421Z,2.33
2023-03-19T13:28:35.028Z,2.00
2023-03-19T13:31:22.472Z,1.63
2023-03-19T13:33:55.950Z,1.80
2023-03-19T13:36:28.062Z,2.00
2023-03-19T13:38:56.460Z,1.95
2023-03-19T13:41:37.062Z,2.28
2023-03-19T13:44:16.447Z,2.00
2023-03-19T13:46:45.306Z,1.67
2023-03-19T13:49:33.489Z,2.10
2023-03-19T13:52:02.412Z,1.45
2023-03-19T13:54:34.574Z,1.90
2023-03-19T13:57:02.340Z,1.83
2023-03-19T13:59:37.680Z,1.90
2023-03-19T14:02:25.516Z,1.50
2023-03-19T14:04:58.786Z,1.70
2023-03-19T14:07:28.165Z,1.90
2023-03-19T14:09:58.220Z,1.58
2023-03-19T14:12:31.298Z,1.90
2023-03-19T14:14:58.636Z,1.70
2023-03-19T14:17:25.780Z,2.10
2023-03-19T14:19:54.290Z,1.70
2023-03-19T14:22:34.686Z,2.00
2023-03-19T14:25:19.539Z,1.73
2023-03-19T14:27:48.286Z,1.67
2023-03-19T14:30:33.306Z,1.63
2023-03-19T14:33:03.612Z,1.67
2023-03-19T14:35:40.321Z,1.83
2023-03-19T14:38:22.076Z,1.80
2023-03-19T14:40:51.961Z,2.00
2023-03-19T14:43:19.117Z,2.10
2023-03-19T14:45:46.326Z,2.10
2023-03-19T14:48:13.458Z,2.40
2023-03-19T14:50:52.596Z,3.00
2023-03-19T14:53:29.499Z,2.40
2023-03-19T14:55:56.622Z,2.10
2023-03-19T14:58:23.768Z,2.13
2023-03-19T15:00:51.800Z,1.93
2023-03-19T15:03:21.802Z,2.00
2023-03-19T15:05:50.624Z,2.10
2023-03-19T15:08:22.312Z,2.53
2023-03-19T15:10:49.429Z,2.10
2023-03-19T15:13:17.144Z,2.30
2023-03-19T15:15:47.338Z,1.80
2023-03-19T15:18:16.333Z,1.97
2023-03-19T15:20:45.618Z,1.87
2023-03-19T15:23:26.312Z,2.27
2023-03-19T15:25:57.635Z,2.30
2023-03-19T15:28:26.454Z,2.40
2023-03-19T15:31:06.192Z,2.00
2023-03-19T15:33:43.197Z,2.43
2023-03-19T15:36:18.399Z,1.93
2023-03-19T15:38:56.767Z,2.23
2023-03-19T15:41:25.712Z,2.50
2023-03-19T15:43:53.006Z,2.97
2023-03-19T15:46:23.066Z,3.13
2023-03-19T15:48:52.833Z,4.00
2023-03-19T15:51:21.370Z,4.10
2023-03-19T15:53:49.112Z,3.40
2023-03-19T15:56:18.242Z,3.00
2023-03-19T15:58:47.812Z,3.00
2023-03-19T16:01:15.979Z,3.17
2023-03-19T16:03:56.141Z,3.00
2023-03-19T16:06:27.156Z,3.80
2023-03-19T16:08:55.469Z,3.70
2023-03-19T16:11:22.586Z,3.83
2023-03-19T16:13:57.824Z,3.13
2023-03-19T16:16:25.748Z,3.63
2023-03-19T16:18:55.619Z,3.33
2023-03-19T16:21:34.372Z,3.20
2023-03-19T16:24:01.480Z,3.17
2023-03-19T16:26:34.872Z,3.40
2023-03-19T16:29:04.709Z,3.40
2023-03-19T16:31:33.862Z,3.03
2023-03-19T16:34:01.312Z,3.40
2023-03-19T16:36:29.463Z,3.60
2023-03-19T16:39:14.732Z,3.27
2023-03-19T16:41:42.353Z,3.60
2023-03-19T16:44:14.344Z,2.97
2023-03-19T16:46:41.795Z,3.00
2023-03-19T16:49:09.050Z,3.33
2023-03-19T16:51:36.612Z,3.23
2023-03-19T16:54:04.023Z,3.67
2023-03-19T16:56:31.421Z,3.77
2023-03-19T16:58:58.723Z,4.10
2023-03-19T17:01:26.432Z,3.63
2023-03-19T17:03:54.019Z,4.60
2023-03-19T17:06:21.922Z,4.00
2023-03-19T17:08:49.396Z,3.90
2023-03-19T17:11:30.127Z,4.40
2023-03-19T17:13:58.975Z,5.60
2023-03-19T17:16:27.514Z,7.27
2023-03-19T17:18:55.159Z,7.20
2023-03-19T17:21:24.513Z,6.40
2023-03-19T17:23:51.905Z,8.13
2023-03-19T17:26:20.546Z,7.60
2023-03-19T17:28:48.176Z,11.17
2023-03-19T17:31:18.309Z,10.50
2023-03-19T17:33:45.458Z,7.90
2023-03-19T17:36:12.579Z,7.47
2023-03-19T17:38:39.719Z,6.33
2023-03-19T17:41:18.240Z,5.80
2023-03-19T17:43:45.510Z,5.37
2023-03-19T17:46:16.037Z,5.63
2023-03-19T17:48:43.245Z,5.80
2023-03-19T17:51:11.152Z,5.30
2023-03-19T17:53:38.654Z,5.60
2023-03-19T17:56:05.910Z,5.50
2023-03-19T17:58:33.098Z,5.40
2023-03-19T18:01:01.305Z,5.70
2023-03-19T18:03:28.679Z,5.70
2023-03-19T18:05:55.821Z,5.97
2023-03-19T18:08:23.754Z,6.07
2023-03-19T18:10:51.277Z,6.97
2023-03-19T18:13:18.378Z,6.70
2023-03-19T18:15:45.844Z,7.17
2023-03-19T18:18:18.157Z,8.00
2023-03-19T18:20:46.664Z,8.30
2023-03-19T18:23:16.179Z,8.50
2023-03-19T18:25:46.742Z,9.10
2023-03-19T18:28:14.415Z,8.93
2023-03-19T18:30:42.259Z,8.83
2023-03-19T18:33:14.193Z,8.90
2023-03-19T18:35:42.524Z,9.83
2023-03-19T18:38:17.496Z,11.40
2023-03-19T18:40:44.725Z,13.50
2023-03-19T18:43:14.802Z,17.13
2023-03-19T18:45:43.253Z,15.00
2023-03-19T18:48:18.049Z,19.07
2023-03-19T18:50:47.540Z,20.43
2023-03-19T18:53:14.763Z,17.43
2023-03-19T18:55:41.982Z,14.63
2023-03-19T18:58:12.258Z,14.10
2023-03-19T19:00:39.410Z,12.30
2023-03-19T19:03:07.678Z,12.73
2023-03-19T19:05:34.770Z,11.37
2023-03-19T19:08:03.165Z,12.37
2023-03-19T19:10:31.563Z,11.83
2023-03-19T19:12:58.766Z,11.30
2023-03-19T19:15:25.929Z,11.87
2023-03-19T19:17:53.470Z,11.57
2023-03-19T19:20:25.243Z,11.67
2023-03-19T19:22:53.083Z,11.90
2023-03-19T19:25:25.600Z,12.00
2023-03-19T19:27:58.348Z,11.80
2023-03-19T19:30:25.591Z,12.10
2023-03-19T19:32:52.732Z,12.67
2023-03-19T19:35:24.810Z,13.07
2023-03-19T19:37:52.159Z,15.77
2023-03-19T19:40:21.041Z,15.93
2023-03-19T19:42:51.906Z,15.43
2023-03-19T19:45:41.573Z,15.73
2023-03-19T19:48:14.748Z,17.50
2023-03-19T19:50:42.129Z,15.57
2023-03-19T19:53:09.778Z,15.33
2023-03-19T19:55:37.165Z,17.77
2023-03-19T19:58:05.231Z,19.93
2023-03-19T20:00:33.567Z,19.03
2023-03-19T20:03:01.462Z,18.17
2023-03-19T20:05:32.852Z,17.37
2023-03-19T20:08:01.349Z,17.17
2023-03-19T20:10:29.747Z,16.93
2023-03-19T20:13:01.872Z,17.30
2023-03-19T20:15:32.943Z,16.60
2023-03-19T20:18:04.198Z,16.27
2023-03-19T20:20:35.511Z,16.47
2023-03-19T20:23:03.215Z,15.77
2023-03-19T20:25:34.918Z,14.77
2023-03-19T20:28:02.722Z,16.10
2023-03-19T20:30:29.809Z,15.33
2023-03-19T20:32:57.969Z,15.10
2023-03-19T20:35:26.700Z,15.77
2023-03-19T20:37:54.753Z,15.80
2023-03-19T20:40:22.609Z,17.10
2023-03-19T20:42:50.716Z,16.97
2023-03-19T20:45:19.885Z,18.07
2023-03-19T20:47:47.601Z,19.37
2023-03-19T20:50:25.486Z,20.90
2023-03-19T20:52:53.043Z,22.70
2023-03-19T20:55:21.800Z,22.23
2023-03-19T20:57:51.142Z,20.23
2023-03-19T21:00:18.871Z,19.70
2023-03-19T21:02:46.081Z,18.47
2023-03-19T21:05:14.040Z,20.27
2023-03-19T21:07:41.484Z,19.13
2023-03-19T21:10:29.173Z,20.40
2023-03-19T21:12:56.633Z,19.30
2023-03-19T21:15:24.102Z,20.50
2023-03-19T21:17:51.608Z,18.87
2023-03-19T21:20:40.907Z,19.67
2023-03-19T21:23:11.239Z,19.83
2023-03-19T21:25:38.383Z,19.93
2023-03-19T21:28:07.706Z,19.77
2023-03-19T21:30:38.483Z,22.17
2023-03-19T21:33:06.689Z,20.70
2023-03-19T21:35:34.077Z,20.50
2023-03-19T21:38:01.349Z,21.40
2023-03-19T21:40:30.971Z,21.07
2023-03-19T21:43:00.597Z,23.17
2023-03-19T21:45:28.929Z,23.73
2023-03-19T21:47:59.797Z,24.77
2023-03-19T21:50:26.911Z,25.40
2023-03-19T21:52:59.806Z,26.37
2023-03-19T21:55:29.755Z,25.17
2023-03-19T21:57:57.924Z,25.10
2023-03-19T22:00:25.921Z,24.47
2023-03-19T22:02:53.169Z,27.70
2023-03-19T22:05:22.179Z,27.73
2023-03-19T22:07:49.532Z,28.93
2023-03-19T22:10:16.838Z,29.00
2023-03-19T22:12:44.038Z,27.73
2023-03-19T22:15:19.633Z,26.53
2023-03-19T22:17:48.103Z,28.13
2023-03-19T22:20:25.436Z,26.20
2023-03-19T22:22:52.838Z,24.23
2023-03-19T22:25:22.183Z,25.87
2023-03-19T22:27:51.471Z,26.30
2023-03-19T22:30:38.591Z,46.53
2023-03-19T22:33:14.942Z,27.00
2023-03-19T22:35:42.404Z,25.20
2023-03-19T22:38:09.593Z,23.30
2023-03-19T22:40:37.456Z,23.43
2023-03-19T22:43:07.124Z,22.63
2023-03-19T22:45:34.590Z,21.77
2023-03-19T22:48:01.918Z,21.47
2023-03-19T22:50:30.568Z,20.87
2023-03-19T22:52:59.065Z,20.90
2023-03-19T22:55:26.468Z,20.40
2023-03-19T22:57:53.584Z,21.27
2023-03-19T23:00:23.642Z,20.33
2023-03-19T23:02:55.917Z,20.00
2023-03-19T23:05:49.248Z,20.90
2023-03-19T23:08:17.615Z,18.43
2023-03-19T23:10:44.829Z,13.97
2023-03-19T23:13:13.836Z,12.67
2023-03-19T23:15:41.061Z,12.00
2023-03-19T23:18:17.442Z,12.07
2023-03-19T23:20:44.775Z,11.43
2023-03-19T23:23:12.914Z,11.00
2023-03-19T23:25:41.396Z,11.33
2023-03-19T23:28:22.348Z,11.70
2023-03-19T23:30:50.683Z,11.13
2023-03-19T23:33:19.259Z,10.03
2023-03-19T23:35:47.027Z,9.83
2023-03-19T23:38:15.154Z,9.37
2023-03-19T23:40:46.267Z,9.70
2023-03-19T23:43:21.879Z,8.67
2023-03-19T23:45:50.080Z,7.93
2023-03-19T23:48:18.563Z,7.40
2023-03-19T23:50:47.037Z,7.20
2023-03-19T23:53:21.997Z,6.33
2023-03-19T23:55:50.336Z,6.77
2023-03-19T23:58:17.913Z,5.97
